createdAt,value
2023-04-12T00:27:27.225Z,8.02
2023-04-12T00:57:33.151Z,7.47
2023-04-12T01:27:42.060Z,7.27
2023-04-12T01:57:45.478Z,6.91
2023-04-12T02:27:48.480Z,6.48
2023-04-12T02:57:51.655Z,6.43
2023-04-12T03:27:54.528Z,6.29
2023-04-12T03:57:57.526Z,6.07
2023-04-12T04:28:00.453Z,6.08
2023-04-12T04:58:03.416Z,6.21
2023-04-12T05:28:06.731Z,6.29
2023-04-12T05:58:09.777Z,6.26
2023-04-12T06:28:12.717Z,6.56
2023-04-12T06:58:15.639Z,6.59
2023-04-12T07:28:18.910Z,6.82
2023-04-12T07:58:23.144Z,7.08
2023-04-12T08:28:26.375Z,7.26
2023-04-12T08:58:29.779Z,7.57
2023-04-12T09:28:32.694Z,7.81
2023-04-12T09:58:36.662Z,8.15
2023-04-12T10:28:39.754Z,8.61
2023-04-12T10:59:02.566Z,9.12
2023-04-12T11:29:08.485Z,9.70
2023-04-12T11:59:11.833Z,10.73
2023-04-12T12:29:18.521Z,12.23
2023-04-12T12:59:23.350Z,12.00
2023-04-12T13:29:28.867Z,12.17
2023-04-12T13:59:32.945Z,12.52
2023-04-12T14:29:36.558Z,11.47
2023-04-12T14:59:39.588Z,11.05
2023-04-12T15:29:42.583Z,12.72
2023-04-12T15:59:45.824Z,12.31
2023-04-12T16:29:48.850Z,12.15
2023-04-12T16:59:52.270Z,11.26
2023-04-12T17:29:55.178Z,9.17
2023-04-12T17:59:58.379Z,8.84
2023-04-12T18:30:01.933Z,7.98
2023-04-12T19:00:06.185Z,7.38
2023-04-12T19:30:10.116Z,7.16
2023-04-12T20:00:15.342Z,6.72
2023-04-12T20:30:19.000Z,6.38
2023-04-12T21:00:22.342Z,6.19
2023-04-12T21:30:25.564Z,5.98
2023-04-12T22:00:28.531Z,6.01
2023-04-12T22:30:31.277Z,5.62
2023-04-12T23:00:34.534Z,5.28
2023-04-12T23:30:37.482Z,4.95
